Time;durP1;ratioP1;P1;durP2;ratioP2;P2;SDS_P1;SDS_P2;PMS_P1;PMS_P2;Temp;Humidity;BMP_temperature;BMP_pressure;BME280_temperature;BME280_humidity;BME280_pressure;Samples;Min_cycle;Max_cycle;Signal;HPM_P1;HPM_P2
2023/01/15 00:01:18;;;;;;;4.38;1.63;;;;;;;;;;5089030;28;20453;-44
2023/01/15 00:03:44;;;;;;;3.95;1.30;;;;;;;;;;5087526;28;20028;-44
2023/01/15 00:06:11;;;;;;;3.65;1.65;;;;;;;;;;5087663;28;20078;-46
2023/01/15 00:08:37;;;;;;;4.10;1.63;;;;;;;;;;5088178;28;20139;-45
2023/01/15 00:11:04;;;;;;;2.50;1.20;;;;;;;;;;5088803;28;20119;-45
2023/01/15 00:13:30;;;;;;;4.43;1.50;;;;;;;;;;5087622;28;20564;-44
2023/01/15 00:16:06;;;;;;;3.85;1.60;;;;;;;;;;5089550;28;20032;-48
2023/01/15 00:18:32;;;;;;;4.97;1.55;;;;;;;;;;5088811;28;20050;-44
2023/01/15 00:20:59;;;;;;;3.67;1.45;;;;;;;;;;5088168;28;20103;-45
2023/01/15 00:28:58;;;;;;;4.22;1.60;;;;;;;;;;5089303;28;20421;-47
2023/01/15 00:31:24;;;;;;;5.35;1.98;;;;;;;;;;5089056;28;20047;-45
2023/01/15 00:33:50;;;;;;;3.03;1.50;;;;;;;;;;5087976;28;20074;-46
2023/01/15 00:36:16;;;;;;;2.58;1.73;;;;;;;;;;5086551;28;20433;-45
2023/01/15 00:38:42;;;;;;;6.63;2.05;;;;;;;;;;5087449;28;20036;-45
2023/01/15 00:41:09;;;;;;;5.43;1.83;;;;;;;;;;5088220;28;20103;-45
2023/01/15 00:43:35;;;;;;;4.45;1.67;;;;;;;;;;5088122;28;20434;-44
2023/01/15 00:46:03;;;;;;;4.90;1.85;;;;;;;;;;5088159;28;20103;-45
2023/01/15 00:48:30;;;;;;;5.70;1.30;;;;;;;;;;5088138;28;20016;-46
2023/01/15 00:50:55;;;;;;;4.25;1.80;;;;;;;;;;5088918;28;20036;-45
2023/01/15 00:53:21;;;;;;;4.95;1.40;;;;;;;;;;5087218;28;20430;-45
2023/01/15 00:55:47;;;;;;;3.50;1.40;;;;;;;;;;5088123;28;20081;-45
2023/01/15 00:58:13;;;;;;;3.17;1.38;;;;;;;;;;5087036;28;20111;-47
2023/01/15 01:00:39;;;;;;;4.03;1.10;;;;;;;;;;5086795;28;20028;-46
2023/01/15 01:03:05;;;;;;;5.00;1.92;;;;;;;;;;5087582;28;20032;-48
2023/01/15 06:16:12;;;;;;;12.13;4.97;;;;;;;;;;5067043;28;20055;-47
2023/01/15 06:18:41;;;;;;;9.30;4.32;;;;;;;;;;5067910;28;20040;-47
2023/01/15 06:21:09;;;;;;;9.98;4.07;;;;;;;;;;5067795;28;20038;-46
2023/01/15 06:23:35;;;;;;;10.07;4.13;;;;;;;;;;5071941;28;20055;-48
2023/01/15 06:26:06;;;;;;;12.30;4.93;;;;;;;;;;5087592;28;20020;-48
2023/01/15 06:28:33;;;;;;;11.77;4.82;;;;;;;;;;5087867;28;20020;-46
2023/01/15 06:30:59;;;;;;;8.75;3.97;;;;;;;;;;5087895;28;20107;-45
2023/01/15 06:33:25;;;;;;;7.57;3.58;;;;;;;;;;5087831;28;20128;-48
2023/01/15 06:35:51;;;;;;;9.77;3.53;;;;;;;;;;5087740;28;20509;-47
2023/01/15 06:38:17;;;;;;;7.68;4.03;;;;;;;;;;5086924;28;20049;-45
2023/01/15 06:40:44;;;;;;;8.88;3.65;;;;;;;;;;5087850;28;20032;-48
2023/01/15 06:48:43;;;;;;;10.57;4.15;;;;;;;;;;5078841;28;20082;-48
2023/01/15 06:51:09;;;;;;;12.40;4.53;;;;;;;;;;5090993;28;20099;-47
2023/01/15 06:53:35;;;;;;;11.77;4.38;;;;;;;;;;5090939;28;20107;-47
2023/01/15 06:56:01;;;;;;;9.00;4.05;;;;;;;;;;5087039;28;20054;-48
2023/01/15 06:58:27;;;;;;;10.65;4.45;;;;;;;;;;5086342;28;20069;-45
2023/01/15 07:00:55;;;;;;;9.43;5.20;;;;;;;;;;5087513;28;20036;-45
2023/01/15 07:03:21;;;;;;;9.23;4.93;;;;;;;;;;5087890;28;20026;-46
2023/01/15 07:05:47;;;;;;;10.15;4.82;;;;;;;;;;5087871;28;20035;-46
2023/01/15 07:08:13;;;;;;;10.18;5.10;;;;;;;;;;5087769;28;20016;-47
2023/01/15 07:10:40;;;;;;;9.15;4.78;;;;;;;;;;5069477;28;20035;-45
2023/01/15 07:13:06;;;;;;;12.43;5.25;;;;;;;;;;5086710;28;20031;-47
2023/01/15 07:15:33;;;;;;;11.98;5.75;;;;;;;;;;5087228;28;20034;-47
2023/01/15 07:18:01;;;;;;;7.85;4.40;;;;;;;;;;5087368;28;20641;-45
2023/01/15 07:20:27;;;;;;;13.13;5.07;;;;;;;;;;5087684;28;20044;-45
2023/01/15 07:22:53;;;;;;;12.70;4.70;;;;;;;;;;5087390;28;20393;-45
2023/01/15 07:25:19;;;;;;;8.48;4.45;;;;;;;;;;5087190;28;20039;-45
2023/01/15 07:27:46;;;;;;;6.38;3.78;;;;;;;;;;5087039;28;20021;-45
2023/01/15 07:30:12;;;;;;;9.05;4.47;;;;;;;;;;5086391;28;20426;-45
2023/01/15 07:32:38;;;;;;;12.82;4.80;;;;;;;;;;5088198;28;20043;-46
2023/01/15 07:35:05;;;;;;;7.90;4.15;;;;;;;;;;5087551;28;20111;-45
2023/01/15 07:37:31;;;;;;;9.85;3.88;;;;;;;;;;5088664;28;20020;-46
2023/01/15 07:39:58;;;;;;;8.65;4.10;;;;;;;;;;5088393;28;20377;-48
2023/01/15 07:50:38;;;;;;;7.05;4.07;;;;;;;;;;5086964;28;20035;-46
2023/01/15 07:53:04;;;;;;;11.27;3.70;;;;;;;;;;5088349;28;20039;-47
2023/01/15 07:55:30;;;;;;;8.15;3.63;;;;;;;;;;5088579;28;20024;-47
2023/01/15 07:57:56;;;;;;;7.88;3.88;;;;;;;;;;5087368;28;20024;-45
2023/01/15 08:00:23;;;;;;;9.07;4.20;;;;;;;;;;5088662;28;20028;-46
2023/01/15 08:02:50;;;;;;;13.40;4.80;;;;;;;;;;5087510;28;20685;-45
2023/01/15 08:05:16;;;;;;;12.48;5.20;;;;;;;;;;5088147;28;20335;-47
2023/01/15 08:07:43;;;;;;;10.02;5.18;;;;;;;;;;5090308;28;20043;-48
2023/01/15 08:10:13;;;;;;;10.18;4.85;;;;;;;;;;5091989;28;20852;-48
2023/01/15 08:15:24;;;;;;;7.90;3.80;;;;;;;;;;5092626;28;20035;-47
2023/01/15 08:17:51;;;;;;;7.72;3.80;;;;;;;;;;5092218;28;20020;-46
2023/01/15 08:20:24;;;;;;;6.38;3.30;;;;;;;;;;5090475;28;20131;-46
2023/01/15 08:22:50;;;;;;;5.00;2.93;;;;;;;;;;5091788;28;20106;-46
2023/01/15 08:25:18;;;;;;;5.78;2.80;;;;;;;;;;5092353;28;20262;-45
2023/01/15 08:27:44;;;;;;;9.50;5.03;;;;;;;;;;5091522;28;20020;-45
2023/01/15 08:30:16;;;;;;;13.43;6.68;;;;;;;;;;5091757;28;20483;-48
2023/01/15 08:32:43;;;;;;;11.65;5.85;;;;;;;;;;5090536;28;20027;-47
2023/01/15 08:35:09;;;;;;;22.38;10.05;;;;;;;;;;5090129;28;20629;-46
2023/01/15 08:37:35;;;;;;;20.75;9.65;;;;;;;;;;5086949;28;20575;-46
2023/01/15 08:40:03;;;;;;;20.52;10.77;;;;;;;;;;5083859;28;20496;-48
2023/01/15 08:42:29;;;;;;;20.05;10.52;;;;;;;;;;5088751;28;20020;-45
2023/01/15 08:44:56;;;;;;;18.75;10.70;;;;;;;;;;5085643;28;20032;-46
2023/01/15 08:47:23;;;;;;;17.50;9.05;;;;;;;;;;5082604;28;20028;-49
2023/01/15 08:49:49;;;;;;;16.15;8.13;;;;;;;;;;5089363;28;20418;-46
2023/01/15 08:52:15;;;;;;;9.88;5.65;;;;;;;;;;5091603;28;20024;-45
2023/01/15 08:54:42;;;;;;;6.13;4.00;;;;;;;;;;5089232;28;20115;-45
2023/01/15 08:57:10;;;;;;;4.82;3.08;;;;;;;;;;5088024;28;20028;-46
2023/01/15 08:59:36;;;;;;;5.75;3.22;;;;;;;;;;5077785;28;20040;-47
2023/01/15 09:02:02;;;;;;;3.70;2.20;;;;;;;;;;5075512;28;20031;-46
2023/01/15 09:04:28;;;;;;;3.03;1.80;;;;;;;;;;5084427;28;20098;-48
2023/01/15 09:06:54;;;;;;;2.40;1.63;;;;;;;;;;5070735;28;20648;-47
2023/01/15 09:09:21;;;;;;;2.53;1.40;;;;;;;;;;5077712;28;20060;-46
2023/01/15 09:11:48;;;;;;;3.08;2.05;;;;;;;;;;5092389;28;20111;-47
2023/01/15 09:14:14;;;;;;;4.32;2.53;;;;;;;;;;5089437;28;20032;-48
2023/01/15 09:16:41;;;;;;;5.28;3.28;;;;;;;;;;5089232;28;20027;-46
2023/01/15 09:19:07;;;;;;;7.93;4.28;;;;;;;;;;5079194;28;20100;-47
2023/01/15 09:21:33;;;;;;;5.95;3.80;;;;;;;;;;5089427;28;20147;-45
2023/01/15 09:23:59;;;;;;;5.32;2.88;;;;;;;;;;5075672;28;20102;-49
2023/01/15 09:26:28;;;;;;;3.60;2.40;;;;;;;;;;5082414;28;20016;-45
2023/01/15 09:28:54;;;;;;;3.25;1.95;;;;;;;;;;5088420;28;20028;-46
2023/01/15 09:31:20;;;;;;;2.17;1.50;;;;;;;;;;5070233;28;20514;-45
2023/01/15 09:33:46;;;;;;;2.28;1.50;;;;;;;;;;5088672;28;20042;-47
2023/01/15 09:36:18;;;;;;;1.42;1.08;;;;;;;;;;5090669;28;20482;-46
2023/01/15 09:38:45;;;;;;;1.02;0.90;;;;;;;;;;5090316;28;20039;-47
2023/01/15 09:42:04;;;;;;;1.98;1.23;;;;;;;;;;5090485;28;20027;-46
2023/01/15 09:44:10;;;;;;;4.00;1.90;;;;;;;;;;5072652;28;20475;-45
2023/01/15 09:46:39;;;;;;;3.53;1.67;;;;;;;;;;5083513;28;20017;-45
2023/01/15 09:49:15;;;;;;;3.70;1.73;;;;;;;;;;5079839;28;20119;-45
2023/01/15 09:51:56;;;;;;;3.25;1.70;;;;;;;;;;5084988;28;20487;-46
2023/01/15 09:54:25;;;;;;;2.35;1.23;;;;;;;;;;5088059;28;20024;-49
2023/01/15 09:56:53;;;;;;;2.47;1.50;;;;;;;;;;5089910;28;20032;-45
2023/01/15 09:59:25;;;;;;;2.75;1.30;;;;;;;;;;5095345;28;20023;-47
2023/01/15 10:01:52;;;;;;;1.75;1.40;;;;;;;;;;5110447;28;20405;-49
2023/01/15 10:04:44;;;;;;;1.83;1.50;;;;;;;;;;5110583;28;20035;-48
2023/01/15 10:07:29;;;;;;;2.30;1.70;;;;;;;;;;5105802;28;20543;-48
2023/01/15 10:10:00;;;;;;;5.47;4.28;;;;;;;;;;5110091;28;20030;-47
2023/01/15 10:12:33;;;;;;;2.97;2.53;;;;;;;;;;5083533;28;20036;-49
2023/01/15 10:15:05;;;;;;;2.45;2.25;;;;;;;;;;5070229;28;20138;-46
2023/01/15 10:17:39;;;;;;;3.08;2.42;;;;;;;;;;5084211;28;20032;-48
2023/01/15 10:20:06;;;;;;;3.60;2.97;;;;;;;;;;5101232;28;20107;-48
2023/01/15 10:22:32;;;;;;;5.40;4.88;;;;;;;;;;5089104;28;20542;-45
2023/01/15 10:24:58;;;;;;;7.22;5.40;;;;;;;;;;5106547;28;20110;-47
2023/01/15 10:27:27;;;;;;;9.38;6.15;;;;;;;;;;5102324;28;20555;-48
2023/01/15 10:30:02;;;;;;;8.50;5.68;;;;;;;;;;5068260;28;20021;-44
2023/01/15 10:32:35;;;;;;;7.15;4.47;;;;;;;;;;5073488;28;20436;-48
2023/01/15 10:35:07;;;;;;;10.23;6.57;;;;;;;;;;5088242;28;20020;-45
2023/01/15 10:37:44;;;;;;;9.05;5.30;;;;;;;;;;5086368;28;20028;-45
2023/01/15 10:40:16;;;;;;;6.35;4.22;;;;;;;;;;5088609;28;20831;-47
2023/01/15 10:42:49;;;;;;;6.35;4.32;;;;;;;;;;5087805;28;20020;-47
2023/01/15 10:45:18;;;;;;;6.50;4.13;;;;;;;;;;5087373;28;20098;-46
2023/01/15 10:47:46;;;;;;;7.43;3.95;;;;;;;;;;5088989;28;20116;-44
2023/01/15 10:50:19;;;;;;;7.38;4.43;;;;;;;;;;5068800;28;20462;-45
2023/01/15 10:52:47;;;;;;;6.88;4.60;;;;;;;;;;5079441;28;20024;-45
2023/01/15 10:55:18;;;;;;;6.93;3.80;;;;;;;;;;5086840;28;20020;-44
2023/01/15 10:57:52;;;;;;;5.60;3.47;;;;;;;;;;5086316;28;20028;-47
2023/01/15 11:00:19;;;;;;;5.43;3.35;;;;;;;;;;5077849;28;20407;-44
2023/01/15 11:02:55;;;;;;;4.97;3.50;;;;;;;;;;5087032;28;20028;-46
2023/01/15 11:05:22;;;;;;;4.53;3.10;;;;;;;;;;5087615;28;20024;-45
2023/01/15 11:07:49;;;;;;;5.80;3.33;;;;;;;;;;5071482;28;20081;-44
2023/01/15 11:10:18;;;;;;;4.05;3.00;;;;;;;;;;5087896;28;20047;-44
2023/01/15 11:21:15;;;;;;;3.38;2.15;;;;;;;;;;5087849;28;20119;-45
2023/01/15 11:23:41;;;;;;;3.25;1.98;;;;;;;;;;5081765;28;20044;-44
2023/01/15 11:26:07;;;;;;;2.20;1.70;;;;;;;;;;5082052;28;20490;-45
2023/01/15 11:28:41;;;;;;;1.48;1.30;;;;;;;;;;5087099;28;20099;-45
2023/01/15 11:31:08;;;;;;;1.63;1.17;;;;;;;;;;5083165;28;20107;-45
2023/01/15 11:33:34;;;;;;;1.30;1.00;;;;;;;;;;5080065;28;20051;-45
2023/01/15 11:36:05;;;;;;;1.33;1.00;;;;;;;;;;5085204;28;20038;-47
2023/01/15 11:38:42;;;;;;;0.85;0.70;;;;;;;;;;5087138;28;20742;-44
2023/01/15 11:50:42;;;;;;;2.25;1.55;;;;;;;;;;5088556;28;20028;-44
2023/01/15 11:52:41;;;;;;;3.08;1.95;;;;;;;;;;5092657;28;20039;-44
2023/01/15 11:55:12;;;;;;;1.73;1.30;;;;;;;;;;5092328;28;20028;-44
2023/01/15 11:57:38;;;;;;;2.13;1.30;;;;;;;;;;5089694;28;20086;-45
2023/01/15 12:00:05;;;;;;;2.33;1.50;;;;;;;;;;5089844;28;20495;-46
2023/01/15 12:02:34;;;;;;;2.35;1.55;;;;;;;;;;5090581;28;20035;-44
2023/01/15 12:05:02;;;;;;;1.88;1.52;;;;;;;;;;5112123;28;20032;-44
2023/01/15 12:07:28;;;;;;;1.98;1.58;;;;;;;;;;5091440;28;20032;-45
2023/01/15 12:10:13;;;;;;;3.13;1.90;;;;;;;;;;5088938;28;20449;-44
2023/01/15 12:12:39;;;;;;;3.63;2.13;;;;;;;;;;5093810;28;20028;-45
2023/01/15 12:15:14;;;;;;;3.75;2.75;;;;;;;;;;5087284;28;20101;-46
2023/01/15 12:17:54;;;;;;;4.32;2.72;;;;;;;;;;5078708;28;20086;-46
2023/01/15 12:20:30;;;;;;;5.00;3.28;;;;;;;;;;5086629;28;20032;-46
2023/01/15 12:23:02;;;;;;;4.80;3.13;;;;;;;;;;5104231;28;20039;-45
2023/01/15 12:25:32;;;;;;;4.10;2.53;;;;;;;;;;5107989;28;20031;-49
2023/01/15 12:28:01;;;;;;;5.22;2.63;;;;;;;;;;5088386;28;20066;-46
2023/01/15 12:30:40;;;;;;;3.42;2.17;;;;;;;;;;5087013;28;20410;-46
2023/01/15 12:33:06;;;;;;;3.17;2.00;;;;;;;;;;5067868;28;20521;-45
2023/01/15 12:35:34;;;;;;;3.05;1.77;;;;;;;;;;5087379;28;20399;-45
2023/01/15 12:38:03;;;;;;;2.25;1.70;;;;;;;;;;5087318;28;20063;-47
2023/01/15 12:40:40;;;;;;;2.80;1.60;;;;;;;;;;5070134;28;20495;-45
2023/01/15 12:46:00;;;;;;;1.90;1.48;;;;;;;;;;5086906;28;20035;-46
2023/01/15 12:48:33;;;;;;;3.35;1.92;;;;;;;;;;5084950;28;20441;-48
2023/01/15 12:51:00;;;;;;;4.07;1.92;;;;;;;;;;5086116;28;20024;-46
2023/01/15 12:53:38;;;;;;;3.25;1.52;;;;;;;;;;5083672;28;20038;-46
2023/01/15 12:56:10;;;;;;;3.05;1.70;;;;;;;;;;5086571;28;20032;-48
2023/01/15 12:58:39;;;;;;;2.60;1.58;;;;;;;;;;5085371;28;20047;-45
2023/01/15 13:01:29;;;;;;;2.20;1.33;;;;;;;;;;5084625;28;20027;-48
2023/01/15 13:04:13;;;;;;;2.15;1.50;;;;;;;;;;5083074;28;20411;-48
2023/01/15 13:06:40;;;;;;;;;;;;;;;;;;5087033;28;20031;-46
2023/01/15 13:09:18;;;;;;;2.72;1.77;;;;;;;;;;5085163;28;19959;-46
2023/01/15 13:11:44;;;;;;;4.03;1.98;;;;;;;;;;5085857;28;20016;-47
2023/01/15 13:14:16;;;;;;;2.42;1.65;;;;;;;;;;5085891;28;20031;-46
2023/01/15 13:17:01;;;;;;;3.30;1.95;;;;;;;;;;5085004;28;20070;-45
2023/01/15 13:19:33;;;;;;;3.80;2.15;;;;;;;;;;5088808;28;20043;-48
2023/01/15 13:22:02;;;;;;;4.93;2.10;;;;;;;;;;5085822;28;20028;-49
2023/01/15 13:24:28;;;;;;;3.15;2.15;;;;;;;;;;5085880;28;20024;-49
2023/01/15 13:26:54;;;;;;;3.17;1.80;;;;;;;;;;5085477;28;20032;-46
2023/01/15 13:29:23;;;;;;;2.33;1.77;;;;;;;;;;5085069;28;20031;-47
2023/01/15 13:32:05;;;;;;;2.05;1.60;;;;;;;;;;5086027;28;20088;-48
2023/01/15 13:34:35;;;;;;;2.15;1.48;;;;;;;;;;5085112;28;20050;-47
2023/01/15 13:37:10;;;;;;;1.75;1.20;;;;;;;;;;5085750;28;20089;-49
2023/01/15 13:39:41;;;;;;;2.50;1.38;;;;;;;;;;5085183;28;20071;-50
2023/01/15 13:42:31;;;;;;;1.00;0.90;;;;;;;;;;5085952;28;20028;-48
2023/01/15 13:44:59;;;;;;;2.28;1.40;;;;;;;;;;5086268;28;20823;-46
2023/01/15 13:47:28;;;;;;;1.85;1.48;;;;;;;;;;5085494;28;20491;-46
2023/01/15 13:50:13;;;;;;;2.35;1.30;;;;;;;;;;5067452;28;20032;-47
2023/01/15 13:52:39;;;;;;;1.88;1.50;;;;;;;;;;5084925;28;20027;-45
2023/01/15 13:55:18;;;;;;;2.08;1.58;;;;;;;;;;5085313;28;20510;-46
2023/01/15 13:57:47;;;;;;;2.65;1.50;;;;;;;;;;5085307;28;20031;-49
2023/01/15 14:00:25;;;;;;;1.63;1.33;;;;;;;;;;5084531;28;20028;-46
2023/01/15 14:02:52;;;;;;;1.70;1.23;;;;;;;;;;5065471;28;20081;-45
2023/01/15 14:05:35;;;;;;;1.73;1.30;;;;;;;;;;5062899;28;20490;-50
2023/01/15 14:08:02;;;;;;;1.77;1.02;;;;;;;;;;5081426;28;20034;-49
2023/01/15 14:10:31;;;;;;;1.30;1.00;;;;;;;;;;5065014;28;20518;-48
2023/01/15 14:13:00;;;;;;;1.92;1.30;;;;;;;;;;5082201;28;20036;-49
2023/01/15 14:15:38;;;;;;;1.55;1.20;;;;;;;;;;5084260;28;20063;-46
2023/01/15 14:18:16;;;;;;;1.65;1.17;;;;;;;;;;5086045;28;20506;-47
2023/01/15 14:20:43;;;;;;;1.98;1.40;;;;;;;;;;5083025;28;20663;-47
2023/01/15 14:23:28;;;;;;;2.28;1.67;;;;;;;;;;5078736;28;20029;-48
2023/01/15 14:25:59;;;;;;;3.25;1.90;;;;;;;;;;5066972;28;20065;-46
2023/01/15 14:28:42;;;;;;;2.67;1.92;;;;;;;;;;5068441;28;20534;-46
2023/01/15 14:31:14;;;;;;;3.42;1.95;;;;;;;;;;5086535;28;20028;-47
2023/01/15 14:33:43;;;;;;;2.85;1.83;;;;;;;;;;5068038;28;20038;-47
2023/01/15 14:36:14;;;;;;;3.08;1.90;;;;;;;;;;5084552;28;20024;-47
2023/01/15 14:38:46;;;;;;;2.15;1.83;;;;;;;;;;5082653;28;20032;-48
2023/01/15 14:41:12;;;;;;;1.77;1.38;;;;;;;;;;5065579;28;20027;-46
2023/01/15 14:43:40;;;;;;;1.40;1.30;;;;;;;;;;5082778;28;20078;-46
2023/01/15 14:46:25;;;;;;;2.05;1.30;;;;;;;;;;5082100;28;20510;-46
2023/01/15 14:48:51;;;;;;;1.75;1.33;;;;;;;;;;5084696;28;20086;-48
2023/01/15 14:51:37;;;;;;;1.83;1.30;;;;;;;;;;5083937;28;20524;-48
2023/01/15 14:54:03;;;;;;;1.58;1.33;;;;;;;;;;5081270;28;20036;-46
2023/01/15 14:56:31;;;;;;;2.80;1.40;;;;;;;;;;5083575;28;20103;-48
2023/01/15 14:59:09;;;;;;;2.53;1.40;;;;;;;;;;5078387;28;20888;-50
2023/01/15 15:01:35;;;;;;;1.52;1.35;;;;;;;;;;5080956;28;20467;-48
2023/01/15 15:04:11;;;;;;;1.55;1.30;;;;;;;;;;5083881;28;20153;-46
2023/01/15 15:06:43;;;;;;;1.90;1.35;;;;;;;;;;5083579;28;20453;-47
2023/01/15 15:09:12;;;;;;;1.10;1.00;;;;;;;;;;5083128;28;20076;-49
2023/01/15 15:14:29;;;;;;;1.27;1.17;;;;;;;;;;5078495;28;20518;-47
2023/01/15 15:16:58;;;;;;;1.15;1.00;;;;;;;;;;5083482;28;20031;-45
2023/01/15 15:19:27;;;;;;;2.33;1.10;;;;;;;;;;5084342;28;20455;-46
2023/01/15 15:21:55;;;;;;;1.27;0.90;;;;;;;;;;5082757;28;20035;-47
2023/01/15 15:24:29;;;;;;;1.45;1.00;;;;;;;;;;5083793;28;20024;-45
2023/01/15 15:26:55;;;;;;;1.25;1.15;;;;;;;;;;5082939;28;20039;-46
2023/01/15 15:29:22;;;;;;;1.75;1.40;;;;;;;;;;5083029;28;20534;-49
2023/01/15 15:31:55;;;;;;;2.10;1.50;;;;;;;;;;5083303;28;20517;-45
2023/01/15 15:34:24;;;;;;;1.70;1.23;;;;;;;;;;5083055;28;20027;-50
2023/01/15 15:36:51;;;;;;;2.25;1.17;;;;;;;;;;5082500;28;20418;-47
2023/01/15 15:39:23;;;;;;;1.50;1.00;;;;;;;;;;5064299;28;20039;-48
2023/01/15 15:50:23;;;;;;;2.80;1.90;;;;;;;;;;5084011;28;20043;-46
2023/01/15 15:52:49;;;;;;;3.38;2.35;;;;;;;;;;5083079;28;20228;-46
2023/01/15 15:55:16;;;;;;;4.38;2.80;;;;;;;;;;5064427;28;20522;-48
2023/01/15 15:57:44;;;;;;;4.13;2.40;;;;;;;;;;5082751;28;20141;-49
2023/01/15 16:00:29;;;;;;;2.88;2.10;;;;;;;;;;5083499;28;20051;-46
2023/01/15 16:02:55;;;;;;;2.83;2.00;;;;;;;;;;5082729;28;20074;-47
2023/01/15 16:05:31;;;;;;;3.00;1.92;;;;;;;;;;5064630;28;20028;-46
2023/01/15 16:08:27;;;;;;;4.07;2.50;;;;;;;;;;5081160;28;20035;-46
2023/01/15 16:10:55;;;;;;;4.40;2.25;;;;;;;;;;5058218;28;20110;-49
2023/01/15 16:13:23;;;;;;;3.45;2.15;;;;;;;;;;5063301;28;20115;-47
2023/01/15 16:15:52;;;;;;;3.33;2.30;;;;;;;;;;5082898;28;20047;-48
2023/01/15 16:18:28;;;;;;;3.15;1.95;;;;;;;;;;5083946;28;20481;-46
2023/01/15 16:20:55;;;;;;;3.38;2.15;;;;;;;;;;5084137;28;20039;-49
2023/01/15 16:23:23;;;;;;;3.70;2.30;;;;;;;;;;5082781;28;20089;-45
2023/01/15 16:25:57;;;;;;;3.20;2.50;;;;;;;;;;5080453;28;20098;-45
2023/01/15 16:28:29;;;;;;;3.88;2.13;;;;;;;;;;5079493;28;20028;-47
2023/01/15 16:30:59;;;;;;;3.72;2.40;;;;;;;;;;5070526;28;20029;-48
2023/01/15 16:33:26;;;;;;;4.00;2.53;;;;;;;;;;5089550;28;20032;-48
2023/01/15 16:35:57;;;;;;;5.20;2.90;;;;;;;;;;5088201;28;20040;-45
2023/01/15 16:38:23;;;;;;;5.90;2.95;;;;;;;;;;5088961;28;20066;-45
2023/01/15 16:40:49;;;;;;;5.25;3.47;;;;;;;;;;5090235;28;20040;-44
2023/01/15 16:43:15;;;;;;;6.22;3.83;;;;;;;;;;5073866;28;20400;-46
2023/01/15 16:45:56;;;;;;;8.68;5.03;;;;;;;;;;5078474;28;20028;-47
2023/01/15 16:48:26;;;;;;;8.98;4.57;;;;;;;;;;5087685;28;20071;-46
2023/01/15 16:50:52;;;;;;;6.90;3.85;;;;;;;;;;5089348;28;20028;-44
2023/01/15 16:53:41;;;;;;;7.70;4.15;;;;;;;;;;5070675;28;20116;-45
2023/01/15 16:56:26;;;;;;;7.55;4.47;;;;;;;;;;5064382;28;20048;-45
2023/01/15 16:58:52;;;;;;;13.35;6.85;;;;;;;;;;5082171;28;20030;-45
2023/01/15 17:01:24;;;;;;;15.63;8.23;;;;;;;;;;5089760;28;20444;-49
2023/01/15 17:03:50;;;;;;;13.57;6.72;;;;;;;;;;5073814;28;20074;-44
2023/01/15 17:06:20;;;;;;;11.25;5.72;;;;;;;;;;5069377;28;20031;-45
2023/01/15 17:08:48;;;;;;;10.80;5.93;;;;;;;;;;5082528;28;20198;-48
2023/01/15 17:11:20;;;;;;;9.73;5.22;;;;;;;;;;5088829;28;20391;-46
2023/01/15 17:13:47;;;;;;;8.80;4.30;;;;;;;;;;5070460;28;20024;-46
2023/01/15 17:16:12;;;;;;;7.55;4.32;;;;;;;;;;5068465;28;20044;-49
2023/01/15 17:18:39;;;;;;;8.35;4.40;;;;;;;;;;5075298;28;20035;-45
2023/01/15 17:21:05;;;;;;;7.07;4.32;;;;;;;;;;5088761;28;20039;-45
2023/01/15 17:23:35;;;;;;;6.43;3.60;;;;;;;;;;5088375;28;20028;-48
2023/01/15 17:26:02;;;;;;;6.93;3.45;;;;;;;;;;5088763;28;20027;-44
2023/01/15 17:28:28;;;;;;;6.22;3.53;;;;;;;;;;5088622;28;20024;-46
2023/01/15 17:30:57;;;;;;;5.18;2.97;;;;;;;;;;5088671;28;20039;-44
2023/01/15 17:33:23;;;;;;;5.38;2.80;;;;;;;;;;5070439;28;20143;-45
2023/01/15 17:35:51;;;;;;;5.95;3.00;;;;;;;;;;5088334;28;20063;-46
2023/01/15 17:38:19;;;;;;;3.47;2.25;;;;;;;;;;5087115;28;20513;-46
2023/01/15 17:40:45;;;;;;;4.78;2.17;;;;;;;;;;5088528;28;20039;-45
2023/01/15 17:43:14;;;;;;;4.07;2.20;;;;;;;;;;5088499;28;20399;-45
2023/01/15 17:45:41;;;;;;;3.65;2.50;;;;;;;;;;5088361;28;20123;-44
2023/01/15 17:48:11;;;;;;;3.22;1.95;;;;;;;;;;5086728;28;20021;-45
2023/01/15 17:50:39;;;;;;;2.90;1.90;;;;;;;;;;5067702;28;20028;-45
2023/01/15 17:53:06;;;;;;;3.42;2.08;;;;;;;;;;5067882;28;20063;-47
2023/01/15 18:06:49;;;;;;;5.97;3.05;;;;;;;;;;5086301;28;20529;-48
2023/01/15 18:09:16;;;;;;;9.23;5.05;;;;;;;;;;5064550;28;20149;-44
2023/01/15 18:11:42;;;;;;;10.32;5.72;;;;;;;;;;5084307;28;20046;-44
2023/01/15 18:14:08;;;;;;;9.52;5.57;;;;;;;;;;5082968;28;20024;-44
2023/01/15 18:16:34;;;;;;;8.88;4.72;;;;;;;;;;5084505;28;20124;-46
2023/01/15 18:19:00;;;;;;;8.63;4.32;;;;;;;;;;5084700;28;20081;-46
2023/01/15 18:21:26;;;;;;;8.23;4.55;;;;;;;;;;5084309;28;20494;-44
2023/01/15 18:23:53;;;;;;;5.95;3.92;;;;;;;;;;5084543;28;20063;-46
2023/01/15 18:26:19;;;;;;;5.13;3.25;;;;;;;;;;5080955;28;20033;-45
2023/01/15 18:28:46;;;;;;;7.78;3.97;;;;;;;;;;5082691;28;20024;-44
2023/01/15 18:31:12;;;;;;;8.43;4.70;;;;;;;;;;5078862;28;20422;-45
2023/01/15 18:33:38;;;;;;;8.18;4.63;;;;;;;;;;5080494;28;20039;-45
2023/01/15 18:36:11;;;;;;;5.85;4.00;;;;;;;;;;5064686;28;20036;-45
2023/01/15 18:38:39;;;;;;;5.30;3.08;;;;;;;;;;5084164;28;20107;-48
2023/01/15 18:41:08;;;;;;;7.10;3.25;;;;;;;;;;5064459;28;20035;-46
2023/01/15 18:49:23;;;;;;;3.45;2.00;;;;;;;;;;5001652;28;20030;-47
2023/01/15 18:52:47;;;;;;;3.40;1.92;;;;;;;;;;5001577;28;20559;-45
2023/01/15 18:54:37;;;;;;;4.95;2.47;;;;;;;;;;5049960;28;20031;-44
2023/01/15 18:57:03;;;;;;;5.72;2.80;;;;;;;;;;5083413;28;20063;-46
2023/01/15 18:59:29;;;;;;;5.15;3.22;;;;;;;;;;5083965;28;20557;-48
2023/01/15 19:01:55;;;;;;;6.60;3.25;;;;;;;;;;5065447;28;20387;-48
2023/01/15 19:04:22;;;;;;;6.13;3.50;;;;;;;;;;5083205;28;20403;-49
2023/01/15 19:06:48;;;;;;;6.30;3.92;;;;;;;;;;5061874;28;20062;-46
2023/01/15 19:09:15;;;;;;;6.30;3.92;;;;;;;;;;5082747;28;20032;-45
2023/01/15 19:11:42;;;;;;;7.15;4.25;;;;;;;;;;5083334;28;20038;-45
2023/01/15 19:19:37;;;;;;;5.28;3.40;;;;;;;;;;5083482;28;19919;-46
2023/01/15 19:24:48;;;;;;;5.88;3.10;;;;;;;;;;5079114;28;20066;-45
2023/01/15 19:27:15;;;;;;;7.05;3.60;;;;;;;;;;5065160;28;20058;-47
2023/01/15 19:29:42;;;;;;;6.93;3.92;;;;;;;;;;5083152;28;20035;-47
2023/01/15 19:32:08;;;;;;;12.45;5.97;;;;;;;;;;5082723;28;20107;-46
2023/01/15 19:34:34;;;;;;;14.05;7.53;;;;;;;;;;5083357;28;20107;-46
2023/01/15 19:37:01;;;;;;;17.08;8.55;;;;;;;;;;5082161;28;20039;-46
2023/01/15 19:39:27;;;;;;;15.00;7.20;;;;;;;;;;5064813;28;20036;-46
2023/01/15 19:50:19;;;;;;;16.70;7.80;;;;;;;;;;5065796;28;20035;-47
2023/01/15 19:52:45;;;;;;;18.02;8.75;;;;;;;;;;5083672;28;20393;-46
2023/01/15 19:55:13;;;;;;;20.02;9.75;;;;;;;;;;5083435;28;20043;-48
2023/01/15 19:57:40;;;;;;;18.88;9.93;;;;;;;;;;5083776;28;20094;-45
2023/01/15 20:00:07;;;;;;;17.70;8.52;;;;;;;;;;5078236;28;20039;-46
2023/01/15 20:02:35;;;;;;;17.05;9.30;;;;;;;;;;5062553;28;20098;-46
2023/01/15 20:05:01;;;;;;;16.52;9.35;;;;;;;;;;5060276;28;20036;-48
2023/01/15 20:07:27;;;;;;;17.30;9.02;;;;;;;;;;5086368;28;20081;-45
2023/01/15 20:09:53;;;;;;;14.73;7.72;;;;;;;;;;5087189;28;20587;-45
2023/01/15 20:15:04;;;;;;;11.88;6.75;;;;;;;;;;5087572;28;20480;-46
2023/01/15 20:17:30;;;;;;;16.23;8.07;;;;;;;;;;5082328;28;20723;-45
2023/01/15 20:19:56;;;;;;;13.38;7.22;;;;;;;;;;5081655;28;20081;-46
2023/01/15 20:22:24;;;;;;;11.23;6.38;;;;;;;;;;5085785;28;20032;-45
2023/01/15 20:24:50;;;;;;;9.57;5.13;;;;;;;;;;5086626;28;20044;-46
2023/01/15 20:27:18;;;;;;;10.73;5.05;;;;;;;;;;5086273;28;20024;-46
2023/01/15 20:30:19;;;;;;;6.38;3.65;;;;;;;;;;5087469;28;20059;-46
2023/01/15 20:32:37;;;;;;;8.35;3.53;;;;;;;;;;5079644;28;20035;-46
2023/01/15 20:35:05;;;;;;;6.22;3.65;;;;;;;;;;5077101;28;20111;-45
2023/01/15 20:37:31;;;;;;;10.50;4.80;;;;;;;;;;5085673;28;20024;-49
2023/01/15 20:39:57;;;;;;;11.35;5.78;;;;;;;;;;5086817;28;20034;-46
2023/01/15 20:45:10;;;;;;;11.70;5.78;;;;;;;;;;5086486;28;20425;-45
2023/01/15 20:50:23;;;;;;;9.90;5.43;;;;;;;;;;5083581;28;20528;-48
2023/01/15 20:52:50;;;;;;;6.82;3.80;;;;;;;;;;5069342;28;20024;-46
2023/01/15 20:55:17;;;;;;;7.55;3.83;;;;;;;;;;5068564;28;20035;-47
2023/01/15 20:57:43;;;;;;;7.95;4.03;;;;;;;;;;5086694;28;20131;-48
2023/01/15 21:00:12;;;;;;;9.48;4.00;;;;;;;;;;5085817;28;20036;-47
2023/01/15 21:02:38;;;;;;;9.30;4.63;;;;;;;;;;5086315;28;20491;-45
2023/01/15 21:05:05;;;;;;;8.07;3.92;;;;;;;;;;5086349;28;20054;-47
2023/01/15 21:07:32;;;;;;;7.03;3.35;;;;;;;;;;5086238;28;20051;-45
2023/01/15 21:09:58;;;;;;;6.25;2.78;;;;;;;;;;5085740;28;20027;-47
2023/01/15 21:12:23;;;;;;;4.95;2.70;;;;;;;;;;5085603;28;20024;-47
2023/01/15 21:14:49;;;;;;;4.40;2.70;;;;;;;;;;5085955;28;20028;-45
2023/01/15 21:17:16;;;;;;;6.05;2.70;;;;;;;;;;5086429;28;20094;-46
2023/01/15 21:19:42;;;;;;;7.18;3.33;;;;;;;;;;5084854;28;20028;-45
2023/01/15 21:22:08;;;;;;;4.97;2.55;;;;;;;;;;5085263;28;20119;-46
2023/01/15 21:24:34;;;;;;;4.60;2.13;;;;;;;;;;5066838;28;20127;-45
2023/01/15 21:27:00;;;;;;;4.90;2.50;;;;;;;;;;5085325;28;20024;-46
2023/01/15 21:29:26;;;;;;;4.55;2.53;;;;;;;;;;5084437;28;20453;-45
2023/01/15 21:31:52;;;;;;;4.43;2.20;;;;;;;;;;5086077;28;20395;-46
2023/01/15 21:34:18;;;;;;;3.67;1.77;;;;;;;;;;5086554;28;20600;-46
2023/01/15 21:36:44;;;;;;;4.15;2.17;;;;;;;;;;5067591;28;20039;-45
2023/01/15 21:39:11;;;;;;;3.88;2.03;;;;;;;;;;5084678;28;20398;-45